createdAt,value
2022-10-30T00:01:14.855Z,99.90
2022-10-30T00:03:41.488Z,99.90
2022-10-30T00:06:08.358Z,99.90
2022-10-30T00:08:35.135Z,99.90
2022-10-30T00:11:07.288Z,99.90
2022-10-30T00:13:34.032Z,99.90
2022-10-30T00:16:06.987Z,99.90
2022-10-30T00:18:36.205Z,99.90
2022-10-30T00:21:11.654Z,99.90
2022-10-30T00:23:38.568Z,99.90
2022-10-30T00:26:07.287Z,99.90
2022-10-30T00:28:36.479Z,99.90
2022-10-30T00:31:04.816Z,99.90
2022-10-30T00:33:32.106Z,99.90
2022-10-30T00:36:00.285Z,99.90
2022-10-30T00:38:29.731Z,99.90
2022-10-30T00:40:56.361Z,99.90
2022-10-30T00:43:40.243Z,99.90
2022-10-30T00:46:16.811Z,99.90
2022-10-30T00:48:47.727Z,99.90
2022-10-30T00:51:17.905Z,99.90
2022-10-30T00:53:48.086Z,99.90
2022-10-30T00:56:18.336Z,99.90
2022-10-30T00:58:56.208Z,99.90
2022-10-30T01:01:26.881Z,99.90
2022-10-30T01:03:57.997Z,99.90
2022-10-30T01:06:25.539Z,99.90
2022-10-30T01:08:58.755Z,99.90
2022-10-30T01:11:26.882Z,99.90
2022-10-30T01:13:56.884Z,99.90
2022-10-30T01:16:56.467Z,99.90
2022-10-30T01:19:28.842Z,99.90
2022-10-30T01:22:04.377Z,99.90
2022-10-30T01:25:05.269Z,99.90
2022-10-30T01:28:03.077Z,99.90
2022-10-30T01:30:47.221Z,99.90
2022-10-30T01:33:25.413Z,99.90
2022-10-30T01:36:17.457Z,99.90
2022-10-30T01:39:05.606Z,99.90
2022-10-30T01:41:32.231Z,99.90
2022-10-30T01:44:11.467Z,99.90
2022-10-30T01:46:56.617Z,99.90
2022-10-30T01:49:55.165Z,99.90
2022-10-30T01:52:41.297Z,99.90
2022-10-30T01:55:18.854Z,99.90
2022-10-30T01:58:19.911Z,99.90
2022-10-30T02:00:51.131Z,99.90
2022-10-30T02:03:18.071Z,99.90
2022-10-30T02:05:49.042Z,99.90
2022-10-30T02:08:15.921Z,99.90
2022-10-30T02:10:44.806Z,99.90
2022-10-30T02:13:11.607Z,99.90
2022-10-30T02:15:38.681Z,99.90
2022-10-30T02:18:05.563Z,99.90
2022-10-30T02:20:32.304Z,99.90
2022-10-30T02:22:59.732Z,99.90
2022-10-30T02:25:27.017Z,99.90
2022-10-30T02:27:53.776Z,99.90
2022-10-30T02:30:23.546Z,99.90
2022-10-30T02:32:52.572Z,99.90
2022-10-30T02:35:21.731Z,99.90
2022-10-30T02:37:49.466Z,99.90
2022-10-30T02:40:16.173Z,99.90
2022-10-30T02:42:42.831Z,99.90
2022-10-30T02:45:10.038Z,99.90
2022-10-30T02:47:36.800Z,99.90
2022-10-30T02:50:03.708Z,99.90
2022-10-30T02:52:30.325Z,99.90
2022-10-30T02:54:56.952Z,99.90
2022-10-30T02:57:23.586Z,99.90
2022-10-30T02:59:50.211Z,99.90
2022-10-30T03:02:16.960Z,99.90
2022-10-30T03:04:45.869Z,99.90
2022-10-30T03:07:12.890Z,99.90
2022-10-30T03:09:41.905Z,99.90
2022-10-30T03:12:08.681Z,99.90
2022-10-30T03:14:35.368Z,99.90
2022-10-30T03:17:01.974Z,99.90
2022-10-30T03:19:28.660Z,99.90
2022-10-30T03:21:55.460Z,99.90
2022-10-30T03:24:22.189Z,99.90
2022-10-30T03:26:48.831Z,99.90
2022-10-30T03:29:15.476Z,99.90
2022-10-30T03:31:42.139Z,99.90
2022-10-30T03:34:08.794Z,99.90
2022-10-30T03:36:35.547Z,99.90
2022-10-30T03:39:02.377Z,99.90
2022-10-30T03:41:28.985Z,99.90
2022-10-30T03:43:58.062Z,99.90
2022-10-30T03:46:26.960Z,99.90
2022-10-30T03:48:55.745Z,99.90
2022-10-30T03:51:22.352Z,99.90
2022-10-30T03:53:48.970Z,99.90
2022-10-30T03:56:15.597Z,99.90
2022-10-30T03:58:42.224Z,99.90
2022-10-30T04:01:12.876Z,99.90
2022-10-30T04:03:39.538Z,99.90
2022-10-30T04:06:07.682Z,99.90
2022-10-30T04:08:36.837Z,99.90
2022-10-30T04:11:06.042Z,99.90
2022-10-30T04:13:34.869Z,99.90
2022-10-30T04:16:01.477Z,99.90
2022-10-30T04:18:28.688Z,99.90
2022-10-30T04:20:55.851Z,99.90
2022-10-30T04:23:25.211Z,99.90
2022-10-30T04:25:51.831Z,99.90
2022-10-30T04:28:18.575Z,99.90
2022-10-30T04:30:48.090Z,99.90
2022-10-30T04:33:15.023Z,99.90
2022-10-30T04:35:44.138Z,99.90
2022-10-30T04:38:15.907Z,99.90
2022-10-30T04:40:46.177Z,99.90
2022-10-30T04:43:13.786Z,99.90
2022-10-30T04:45:41.383Z,99.90
2022-10-30T04:48:12.561Z,99.90
2022-10-30T04:50:44.733Z,99.90
2022-10-30T04:53:18.439Z,99.90
2022-10-30T04:55:45.430Z,99.90
2022-10-30T04:58:12.980Z,99.90
2022-10-30T05:00:42.598Z,99.90
2022-10-30T05:03:23.892Z,99.90
2022-10-30T05:06:00.896Z,99.90
2022-10-30T05:08:28.127Z,99.90
2022-10-30T05:10:55.776Z,99.90
2022-10-30T05:13:23.110Z,99.90
2022-10-30T05:15:49.783Z,99.90
2022-10-30T05:18:16.563Z,99.90
2022-10-30T05:20:43.255Z,99.90
2022-10-30T05:23:09.914Z,99.90
2022-10-30T05:25:39.144Z,99.90
2022-10-30T05:28:07.093Z,99.90
2022-10-30T05:30:34.684Z,99.90
2022-10-30T05:33:06.015Z,99.90
2022-10-30T05:35:34.570Z,99.90
2022-10-30T05:38:02.716Z,99.90
2022-10-30T05:40:29.363Z,99.90
2022-10-30T05:42:56.347Z,99.90
2022-10-30T05:45:25.636Z,99.90
2022-10-30T05:48:00.562Z,99.90
2022-10-30T05:50:30.739Z,99.90
2022-10-30T05:53:01.874Z,99.90
2022-10-30T05:55:29.416Z,99.90
2022-10-30T05:58:06.354Z,99.90
2022-10-30T06:00:36.921Z,99.90
2022-10-30T06:03:06.329Z,99.90
2022-10-30T06:05:37.461Z,99.90
2022-10-30T06:08:10.129Z,99.90
2022-10-30T06:10:37.778Z,99.90
2022-10-30T06:13:06.546Z,99.90
2022-10-30T06:15:33.611Z,99.90
2022-10-30T06:18:00.808Z,99.90
2022-10-30T06:20:30.058Z,99.90
2022-10-30T06:22:58.289Z,99.90
2022-10-30T06:25:28.986Z,99.90
2022-10-30T06:27:55.830Z,99.90
2022-10-30T06:30:25.455Z,99.90
2022-10-30T06:33:02.403Z,99.90
2022-10-30T06:35:29.768Z,99.90
2022-10-30T06:38:02.443Z,99.90
2022-10-30T06:40:29.963Z,99.90
2022-10-30T06:42:57.553Z,99.90
2022-10-30T06:45:24.977Z,99.90
2022-10-30T06:47:52.135Z,99.90
2022-10-30T06:50:20.490Z,99.90
2022-10-30T06:52:49.606Z,99.90
2022-10-30T06:55:16.457Z,99.90
2022-10-30T06:57:43.171Z,99.90
2022-10-30T07:00:13.338Z,99.90
2022-10-30T07:02:40.021Z,99.90
2022-10-30T07:05:06.901Z,99.90
2022-10-30T07:07:33.571Z,99.90
2022-10-30T07:10:00.278Z,99.90
2022-10-30T07:12:27.315Z,99.90
2022-10-30T07:14:53.990Z,99.90
2022-10-30T07:17:21.499Z,99.90
2022-10-30T07:19:48.164Z,99.90
2022-10-30T07:22:14.801Z,99.90
2022-10-30T07:24:41.492Z,99.90
2022-10-30T07:27:08.113Z,99.90
2022-10-30T07:29:34.771Z,99.90
2022-10-30T07:32:03.975Z,99.90
2022-10-30T07:34:31.025Z,99.90
2022-10-30T07:36:59.996Z,99.90
2022-10-30T07:39:26.654Z,99.90
2022-10-30T07:41:53.295Z,99.90
2022-10-30T07:44:19.928Z,99.90
2022-10-30T07:46:49.112Z,99.90
2022-10-30T07:49:18.301Z,99.90
2022-10-30T07:51:44.963Z,99.90
2022-10-30T07:54:11.732Z,99.90
2022-10-30T07:56:40.693Z,99.90
2022-10-30T07:59:07.312Z,99.90
2022-10-30T08:01:36.690Z,99.90
2022-10-30T08:04:05.744Z,99.90
2022-10-30T08:06:32.354Z,99.90
2022-10-30T08:09:01.165Z,99.90
2022-10-30T08:11:28.026Z,99.90
2022-10-30T08:13:54.613Z,99.90
2022-10-30T08:16:24.251Z,99.90
2022-10-30T08:18:51.834Z,99.90
2022-10-30T08:21:18.475Z,99.90
2022-10-30T08:23:45.096Z,99.90
2022-10-30T08:26:14.377Z,99.90
2022-10-30T08:28:40.964Z,99.90
2022-10-30T08:31:07.599Z,99.90
2022-10-30T08:33:34.256Z,99.90
2022-10-30T08:36:03.479Z,99.90
2022-10-30T08:38:35.316Z,99.90
2022-10-30T08:41:04.730Z,99.90
2022-10-30T08:43:31.371Z,99.90
2022-10-30T08:45:58.556Z,99.90
2022-10-30T08:48:27.696Z,99.90
2022-10-30T08:51:03.848Z,99.90
2022-10-30T08:53:30.504Z,99.90
2022-10-30T08:55:57.155Z,99.90
2022-10-30T08:58:24.136Z,99.90
2022-10-30T09:00:50.841Z,99.90
2022-10-30T09:03:17.488Z,99.90
2022-10-30T09:05:46.719Z,99.90
2022-10-30T09:08:13.359Z,99.90
2022-10-30T09:10:40.102Z,99.90
2022-10-30T09:13:09.450Z,99.90
2022-10-30T09:15:36.169Z,99.90
2022-10-30T09:18:04.563Z,99.90
2022-10-30T09:20:31.635Z,99.90
2022-10-30T09:22:58.907Z,99.90
2022-10-30T09:25:26.170Z,99.90
2022-10-30T09:27:52.851Z,99.90
2022-10-30T09:30:19.749Z,99.90
2022-10-30T09:32:52.568Z,99.90
2022-10-30T09:35:21.601Z,99.90
2022-10-30T09:37:50.790Z,99.90
2022-10-30T09:40:38.847Z,99.90
2022-10-30T09:43:29.674Z,99.90
2022-10-30T09:46:15.249Z,99.90
2022-10-30T09:49:19.916Z,99.90
2022-10-30T09:52:17.831Z,99.90
2022-10-30T09:54:50.361Z,99.90
2022-10-30T09:57:27.835Z,99.90
2022-10-30T10:00:03.942Z,99.90
2022-10-30T10:02:57.631Z,99.90
2022-10-30T10:05:43.010Z,99.90
2022-10-30T10:08:19.258Z,99.90
2022-10-30T10:10:56.160Z,99.90
2022-10-30T10:13:32.778Z,99.90
2022-10-30T10:16:20.361Z,99.90
2022-10-30T10:18:48.630Z,99.90
2022-10-30T10:21:29.054Z,99.80
2022-10-30T10:23:58.941Z,98.60
2022-10-30T10:26:46.796Z,98.30
2022-10-30T10:29:25.739Z,98.90
2022-10-30T10:32:14.745Z,98.90
2022-10-30T10:35:03.014Z,97.80
2022-10-30T10:37:48.008Z,98.60
2022-10-30T10:40:52.016Z,99.30
2022-10-30T10:43:33.152Z,99.50
2022-10-30T10:46:11.677Z,99.90
2022-10-30T10:48:51.549Z,99.90
2022-10-30T10:51:58.913Z,99.90
2022-10-30T10:54:37.566Z,99.90
2022-10-30T10:57:06.397Z,99.90
2022-10-30T10:59:41.137Z,99.90
2022-10-30T11:02:26.744Z,99.90
2022-10-30T11:04:59.201Z,99.90
2022-10-30T11:07:35.108Z,99.90
2022-10-30T11:10:04.549Z,99.90
2022-10-30T11:12:36.548Z,99.90
2022-10-30T11:15:16.363Z,99.00
2022-10-30T11:17:50.562Z,97.20
2022-10-30T11:20:37.777Z,95.80
2022-10-30T11:23:24.825Z,95.20
2022-10-30T11:25:51.676Z,94.40
2022-10-30T11:28:48.583Z,93.90
2022-10-30T11:31:27.760Z,93.20
2022-10-30T11:33:54.867Z,92.40
2022-10-30T11:36:26.116Z,93.10
2022-10-30T11:38:57.169Z,93.60
2022-10-30T11:41:25.458Z,94.10
2022-10-30T11:43:52.261Z,94.90
2022-10-30T11:46:24.218Z,95.50
2022-10-30T11:48:54.832Z,96.30
2022-10-30T11:51:39.549Z,97.00
2022-10-30T11:54:09.911Z,97.40
2022-10-30T11:56:46.355Z,97.80
2022-10-30T11:59:20.420Z,97.10
2022-10-30T12:02:19.905Z,96.70
2022-10-30T12:04:46.680Z,95.80
2022-10-30T12:07:25.748Z,94.80
2022-10-30T12:09:52.467Z,93.10
2022-10-30T12:12:40.053Z,91.40
2022-10-30T12:15:14.145Z,90.30
2022-10-30T12:17:41.354Z,90.00
2022-10-30T12:20:14.973Z,87.00
2022-10-30T12:22:41.994Z,85.50
2022-10-30T12:25:31.996Z,85.40
2022-10-30T12:28:01.136Z,85.80
2022-10-30T12:30:30.971Z,85.00
2022-10-30T12:33:01.273Z,84.70
2022-10-30T12:35:42.933Z,85.50
2022-10-30T12:38:25.318Z,84.40
2022-10-30T12:41:29.322Z,83.70
2022-10-30T12:44:11.749Z,83.60
2022-10-30T12:46:58.862Z,83.90
2022-10-30T12:49:52.844Z,83.10
2022-10-30T12:52:35.888Z,82.30
2022-10-30T12:55:21.981Z,84.60
2022-10-30T12:58:11.871Z,83.80
2022-10-30T13:00:52.021Z,83.70
2022-10-30T13:03:43.612Z,84.70
2022-10-30T13:06:17.340Z,84.90
2022-10-30T13:09:02.803Z,85.90
2022-10-30T13:11:36.811Z,85.20
2022-10-30T13:14:09.077Z,87.10
2022-10-30T13:16:36.135Z,88.90
2022-10-30T13:19:10.704Z,88.10
2022-10-30T13:22:02.565Z,87.20
2022-10-30T13:25:03.731Z,84.60
2022-10-30T13:27:45.221Z,80.80
2022-10-30T13:30:25.721Z,75.90
2022-10-30T13:33:24.334Z,77.40
2022-10-30T13:35:56.817Z,79.90
2022-10-30T13:38:37.825Z,81.20
2022-10-30T13:41:50.990Z,80.60
2022-10-30T13:44:29.510Z,81.40
2022-10-30T13:47:19.124Z,80.60
2022-10-30T13:49:50.094Z,78.60
2022-10-30T13:52:22.948Z,78.50
2022-10-30T13:55:02.351Z,78.60
2022-10-30T13:57:42.377Z,80.30
2022-10-30T14:00:50.247Z,81.10
2022-10-30T14:03:30.027Z,83.40
2022-10-30T14:06:05.670Z,85.70
2022-10-30T14:08:51.109Z,86.40
2022-10-30T14:11:17.797Z,88.40
2022-10-30T14:13:59.974Z,90.30
2022-10-30T14:17:12.921Z,90.80
2022-10-30T14:20:10.120Z,91.40
2022-10-30T14:22:40.905Z,92.10
2022-10-30T14:25:16.928Z,93.10
2022-10-30T14:27:54.898Z,93.40
2022-10-30T14:30:27.720Z,93.60
2022-10-30T14:32:55.390Z,93.80
2022-10-30T14:36:08.397Z,94.30
2022-10-30T14:38:39.436Z,94.80
2022-10-30T14:41:44.370Z,95.40
2022-10-30T14:44:27.665Z,96.50
2022-10-30T14:47:25.462Z,96.60
2022-10-30T14:50:20.167Z,97.00
2022-10-30T14:52:49.729Z,97.30
2022-10-30T14:55:19.091Z,97.40
2022-10-30T14:57:47.774Z,97.80
2022-10-30T15:00:26.807Z,98.10
2022-10-30T15:03:07.816Z,98.40
2022-10-30T15:05:55.126Z,98.80
2022-10-30T15:08:51.081Z,99.10
2022-10-30T15:11:25.949Z,99.30
2022-10-30T15:14:20.914Z,99.30
2022-10-30T15:16:50.837Z,99.20
2022-10-30T15:19:19.235Z,99.40
2022-10-30T15:21:50.050Z,99.60
2022-10-30T15:24:19.222Z,99.90
2022-10-30T15:26:54.887Z,99.90
2022-10-30T15:29:28.875Z,99.90
2022-10-30T15:32:18.287Z,99.90
2022-10-30T15:35:05.646Z,99.90
2022-10-30T15:37:32.471Z,99.90
2022-10-30T15:40:21.007Z,99.90
2022-10-30T15:42:52.145Z,99.90
2022-10-30T15:45:25.494Z,99.90
2022-10-30T15:48:21.849Z,99.90
2022-10-30T15:51:16.716Z,99.90
2022-10-30T15:53:43.313Z,99.90
2022-10-30T15:56:27.957Z,99.90
2022-10-30T15:59:00.749Z,99.90
2022-10-30T16:01:31.986Z,99.90
2022-10-30T16:03:59.169Z,99.90
2022-10-30T16:06:30.933Z,99.90
2022-10-30T16:09:03.657Z,99.90
2022-10-30T16:11:30.567Z,99.90
2022-10-30T16:13:59.405Z,99.90
2022-10-30T16:16:31.404Z,99.90
2022-10-30T16:19:01.327Z,99.90
2022-10-30T16:21:31.762Z,99.90
2022-10-30T16:24:05.203Z,99.90
2022-10-30T16:26:33.926Z,99.90
2022-10-30T16:29:23.104Z,99.90
2022-10-30T16:31:53.619Z,99.90
2022-10-30T16:34:31.634Z,99.90
2022-10-30T16:36:59.302Z,99.90
2022-10-30T16:39:26.821Z,99.90
2022-10-30T16:41:57.831Z,99.90
2022-10-30T16:44:35.113Z,99.90
2022-10-30T16:47:10.644Z,99.90
2022-10-30T16:49:37.815Z,99.90
2022-10-30T16:52:09.297Z,99.90
2022-10-30T16:54:41.805Z,99.90
2022-10-30T16:57:24.841Z,99.90
2022-10-30T16:59:53.090Z,99.90
2022-10-30T17:02:26.614Z,99.90
2022-10-30T17:04:58.718Z,99.90
2022-10-30T17:07:29.054Z,99.90
2022-10-30T17:09:58.525Z,99.90
2022-10-30T17:12:28.843Z,99.90
2022-10-30T17:15:14.112Z,99.90
2022-10-30T17:17:44.492Z,99.90
2022-10-30T17:20:21.793Z,99.90
2022-10-30T17:23:05.162Z,99.90
2022-10-30T17:25:38.760Z,99.90
2022-10-30T17:28:06.261Z,99.90
2022-10-30T17:30:37.875Z,99.90
2022-10-30T17:33:26.599Z,99.90
2022-10-30T17:38:21.079Z,99.90
2022-10-30T17:40:50.129Z,99.90
2022-10-30T17:43:16.797Z,99.90
2022-10-30T17:45:44.359Z,99.90
2022-10-30T17:48:16.932Z,99.90
2022-10-30T17:50:44.827Z,99.90
2022-10-30T17:53:21.781Z,99.90
2022-10-30T17:55:59.586Z,99.90
2022-10-30T17:58:26.275Z,99.90
2022-10-30T18:00:53.024Z,99.90
2022-10-30T18:03:19.723Z,99.90
2022-10-30T18:05:49.240Z,99.90
2022-10-30T18:08:15.854Z,99.90
2022-10-30T18:10:43.949Z,99.90
2022-10-30T18:13:13.221Z,99.90
2022-10-30T18:15:46.130Z,99.90
2022-10-30T18:18:13.007Z,99.90
2022-10-30T18:20:44.264Z,99.90
2022-10-30T18:26:16.008Z,99.90
2022-10-30T18:28:52.481Z,99.90
2022-10-30T18:31:21.727Z,99.90
2022-10-30T18:33:48.733Z,99.90
2022-10-30T18:36:23.755Z,99.90
2022-10-30T18:38:52.550Z,99.90
2022-10-30T18:41:27.431Z,99.90
2022-10-30T18:43:56.333Z,99.90
2022-10-30T18:46:23.606Z,99.90
2022-10-30T18:48:52.504Z,99.90
2022-10-30T18:51:25.055Z,99.90
2022-10-30T18:53:52.296Z,99.90
2022-10-30T18:56:21.636Z,99.90
2022-10-30T18:58:49.065Z,99.90
2022-10-30T19:01:16.950Z,99.90
2022-10-30T19:03:44.580Z,99.90
2022-10-30T19:06:23.932Z,99.90
2022-10-30T19:08:50.884Z,99.90
2022-10-30T19:11:24.633Z,99.90
2022-10-30T19:13:53.697Z,99.90
2022-10-30T19:16:23.773Z,99.90
2022-10-30T19:18:52.602Z,99.90
2022-10-30T19:21:25.270Z,99.90
2022-10-30T19:23:52.210Z,99.90
2022-10-30T19:26:19.447Z,99.90
2022-10-30T19:28:46.402Z,99.90
2022-10-30T19:31:17.723Z,99.90
2022-10-30T19:33:51.373Z,99.90
2022-10-30T19:36:36.203Z,99.90
2022-10-30T19:39:09.149Z,99.90
2022-10-30T19:41:36.987Z,99.90
2022-10-30T19:44:04.104Z,99.90
2022-10-30T19:46:30.774Z,99.90
2022-10-30T19:48:59.025Z,99.90
2022-10-30T19:51:29.543Z,99.90
2022-10-30T19:53:56.497Z,99.90
2022-10-30T19:56:23.433Z,99.90
2022-10-30T19:58:50.577Z,99.90
2022-10-30T20:01:19.952Z,99.90
2022-10-30T20:03:46.785Z,99.90
2022-10-30T20:06:15.224Z,99.90
2022-10-30T20:08:42.394Z,99.90
2022-10-30T20:11:09.101Z,99.90
2022-10-30T20:13:38.640Z,99.90
2022-10-30T20:16:06.059Z,99.90
2022-10-30T20:18:36.176Z,99.90
2022-10-30T20:21:12.318Z,99.90
2022-10-30T20:23:39.737Z,99.90
2022-10-30T20:26:15.895Z,99.90
2022-10-30T20:28:44.848Z,99.90
2022-10-30T20:31:12.728Z,99.90
2022-10-30T20:33:39.563Z,99.90
2022-10-30T20:36:12.443Z,99.90
2022-10-30T20:38:42.475Z,99.90
2022-10-30T20:41:20.232Z,99.90
2022-10-30T20:43:50.098Z,99.90
2022-10-30T20:46:17.163Z,99.90
2022-10-30T20:48:43.907Z,99.90
2022-10-30T20:51:14.289Z,99.90
2022-10-30T20:53:43.624Z,99.90
2022-10-30T20:56:11.599Z,99.90
2022-10-30T20:58:41.997Z,99.90
2022-10-30T21:01:09.066Z,99.90
2022-10-30T21:03:40.488Z,99.90
2022-10-30T21:06:09.935Z,99.90
2022-10-30T21:08:36.895Z,99.90
2022-10-30T21:11:07.269Z,99.90
2022-10-30T21:13:35.148Z,99.90
2022-10-30T21:16:11.651Z,99.90
2022-10-30T21:18:40.665Z,99.90
2022-10-30T21:21:13.408Z,99.90
2022-10-30T21:23:43.036Z,99.90
2022-10-30T21:26:11.719Z,99.90
2022-10-30T21:28:44.175Z,99.90
2022-10-30T21:31:13.365Z,99.90
2022-10-30T21:33:40.296Z,99.90
2022-10-30T21:36:13.392Z,99.90
2022-10-30T21:38:44.633Z,99.90
2022-10-30T21:41:13.316Z,99.90
2022-10-30T21:43:42.489Z,99.90
2022-10-30T21:46:11.670Z,99.90
2022-10-30T21:48:38.907Z,99.90
2022-10-30T21:51:09.969Z,99.90
2022-10-30T21:53:40.522Z,99.90
2022-10-30T21:56:12.531Z,99.90
2022-10-30T21:58:39.315Z,99.90
2022-10-30T22:01:07.010Z,99.90
2022-10-30T22:03:34.234Z,99.90
2022-10-30T22:06:06.376Z,99.90
2022-10-30T22:08:33.635Z,99.90
2022-10-30T22:11:10.871Z,99.90
2022-10-30T22:13:40.728Z,99.90
2022-10-30T22:16:11.561Z,99.90
2022-10-30T22:18:38.768Z,99.90
2022-10-30T22:21:11.602Z,99.90
2022-10-30T22:23:41.254Z,99.90
2022-10-30T22:26:19.734Z,99.90
2022-10-30T22:28:46.748Z,99.90
2022-10-30T22:31:18.157Z,99.90
2022-10-30T22:33:45.399Z,99.90
2022-10-30T22:36:28.732Z,99.90
2022-10-30T22:39:00.203Z,99.90
2022-10-30T22:41:32.886Z,99.90
2022-10-30T22:44:04.441Z,99.90
2022-10-30T22:46:37.524Z,99.90
2022-10-30T22:49:07.093Z,99.90
2022-10-30T22:51:35.491Z,99.90
2022-10-30T22:54:03.960Z,99.90
2022-10-30T22:56:35.240Z,99.90
2022-10-30T22:59:03.972Z,99.90
2022-10-30T23:01:32.978Z,99.90
2022-10-30T23:04:01.507Z,99.90
2022-10-30T23:06:29.701Z,99.90
2022-10-30T23:08:59.902Z,99.90
2022-10-30T23:11:27.613Z,99.90
2022-10-30T23:13:54.633Z,99.90
2022-10-30T23:16:23.557Z,99.90
2022-10-30T23:18:51.038Z,99.90
2022-10-30T23:21:22.274Z,99.90
2022-10-30T23:23:49.636Z,99.90
2022-10-30T23:26:24.959Z,99.90
2022-10-30T23:28:55.891Z,99.90
2022-10-30T23:31:30.474Z,99.90
2022-10-30T23:33:59.044Z,99.90
2022-10-30T23:36:28.406Z,99.90
2022-10-30T23:38:59.999Z,99.90
2022-10-30T23:41:28.846Z,99.90
2022-10-30T23:44:00.593Z,99.90
2022-10-30T23:46:28.254Z,99.90
2022-10-30T23:48:55.355Z,99.90
2022-10-30T23:51:24.602Z,99.90
2022-10-30T23:53:51.437Z,99.90
2022-10-30T23:56:18.501Z,99.90
2022-10-30T23:58:50.469Z,99.90
